sensor_id;sensor_type;location;lat;lon;timestamp;P1;durP1;ratioP1;P2;durP2;ratioP2
9848;SDS011;4963;51.444;6.528;2023-03-13T00:01:25;16.83;;;4.13;;
9848;SDS011;4963;51.444;6.528;2023-03-13T00:03:53;18.17;;;4.20;;
9848;SDS011;4963;51.444;6.528;2023-03-13T00:06:20;14.57;;;3.60;;
9848;SDS011;4963;51.444;6.528;2023-03-13T00:08:49;17.20;;;3.80;;
9848;SDS011;4963;51.444;6.528;2023-03-13T00:11:15;17.10;;;4.37;;
9848;SDS011;4963;51.444;6.528;2023-03-13T00:13:42;14.90;;;4.43;;
9848;SDS011;4963;51.444;6.528;2023-03-13T00:16:10;15.77;;;4.10;;
9848;SDS011;4963;51.444;6.528;2023-03-13T00:18:38;20.83;;;4.07;;
9848;SDS011;4963;51.444;6.528;2023-03-13T00:21:09;26.80;;;4.40;;
9848;SDS011;4963;51.444;6.528;2023-03-13T00:23:36;14.63;;;3.60;;
9848;SDS011;4963;51.444;6.528;2023-03-13T00:26:06;17.77;;;4.03;;
9848;SDS011;4963;51.444;6.528;2023-03-13T00:28:35;23.60;;;4.33;;
9848;SDS011;4963;51.444;6.528;2023-03-13T00:31:03;16.53;;;4.80;;
9848;SDS011;4963;51.444;6.528;2023-03-13T00:33:31;17.07;;;4.10;;
9848;SDS011;4963;51.444;6.528;2023-03-13T00:35:59;19.13;;;4.23;;
9848;SDS011;4963;51.444;6.528;2023-03-13T00:38:26;18.23;;;4.10;;
9848;SDS011;4963;51.444;6.528;2023-03-13T00:40:57;14.77;;;3.77;;
9848;SDS011;4963;51.444;6.528;2023-03-13T00:43:26;18.33;;;4.57;;
9848;SDS011;4963;51.444;6.528;2023-03-13T00:45:53;17.40;;;4.17;;
9848;SDS011;4963;51.444;6.528;2023-03-13T00:48:20;19.80;;;4.40;;
9848;SDS011;4963;51.444;6.528;2023-03-13T00:50:47;17.43;;;3.90;;
9848;SDS011;4963;51.444;6.528;2023-03-13T00:53:13;17.53;;;3.87;;
9848;SDS011;4963;51.444;6.528;2023-03-13T00:55:49;20.23;;;3.90;;
9848;SDS011;4963;51.444;6.528;2023-03-13T00:58:17;14.43;;;4.20;;
9848;SDS011;4963;51.444;6.528;2023-03-13T01:00:45;20.37;;;4.50;;
9848;SDS011;4963;51.444;6.528;2023-03-13T01:03:12;13.10;;;3.70;;
9848;SDS011;4963;51.444;6.528;2023-03-13T01:05:39;15.10;;;4.03;;
9848;SDS011;4963;51.444;6.528;2023-03-13T01:08:06;12.37;;;4.20;;
9848;SDS011;4963;51.444;6.528;2023-03-13T01:10:32;15.90;;;5.47;;
9848;SDS011;4963;51.444;6.528;2023-03-13T01:13:00;17.77;;;4.30;;
9848;SDS011;4963;51.444;6.528;2023-03-13T01:15:28;16.17;;;4.53;;
9848;SDS011;4963;51.444;6.528;2023-03-13T01:17:57;19.50;;;4.03;;
9848;SDS011;4963;51.444;6.528;2023-03-13T01:20:23;15.27;;;3.37;;
9848;SDS011;4963;51.444;6.528;2023-03-13T01:22:50;19.60;;;4.40;;
9848;SDS011;4963;51.444;6.528;2023-03-13T01:25:17;17.60;;;4.63;;
9848;SDS011;4963;51.444;6.528;2023-03-13T01:27:44;16.10;;;4.40;;
9848;SDS011;4963;51.444;6.528;2023-03-13T01:30:11;15.83;;;4.03;;
9848;SDS011;4963;51.444;6.528;2023-03-13T01:32:38;13.77;;;3.53;;
9848;SDS011;4963;51.444;6.528;2023-03-13T01:35:06;16.63;;;4.43;;
9848;SDS011;4963;51.444;6.528;2023-03-13T01:37:33;18.23;;;4.20;;
9848;SDS011;4963;51.444;6.528;2023-03-13T01:40:00;12.97;;;3.67;;
9848;SDS011;4963;51.444;6.528;2023-03-13T01:42:27;21.60;;;4.97;;
9848;SDS011;4963;51.444;6.528;2023-03-13T01:44:55;17.13;;;4.90;;
9848;SDS011;4963;51.444;6.528;2023-03-13T01:47:22;13.13;;;3.33;;
9848;SDS011;4963;51.444;6.528;2023-03-13T01:49:49;15.17;;;4.07;;
9848;SDS011;4963;51.444;6.528;2023-03-13T01:52:19;17.17;;;4.37;;
9848;SDS011;4963;51.444;6.528;2023-03-13T01:54:49;16.83;;;4.10;;
9848;SDS011;4963;51.444;6.528;2023-03-13T01:57:22;25.83;;;4.50;;
9848;SDS011;4963;51.444;6.528;2023-03-13T01:59:52;15.87;;;4.00;;
9848;SDS011;4963;51.444;6.528;2023-03-13T02:02:21;19.40;;;4.90;;
9848;SDS011;4963;51.444;6.528;2023-03-13T02:04:49;13.90;;;4.00;;
9848;SDS011;4963;51.444;6.528;2023-03-13T02:07:21;17.67;;;4.40;;
9848;SDS011;4963;51.444;6.528;2023-03-13T02:09:52;19.37;;;4.80;;
9848;SDS011;4963;51.444;6.528;2023-03-13T02:12:21;18.90;;;4.90;;
9848;SDS011;4963;51.444;6.528;2023-03-13T02:14:52;15.87;;;4.77;;
9848;SDS011;4963;51.444;6.528;2023-03-13T02:17:20;12.90;;;3.60;;
9848;SDS011;4963;51.444;6.528;2023-03-13T02:19:48;14.00;;;4.20;;
9848;SDS011;4963;51.444;6.528;2023-03-13T02:22:19;18.67;;;3.93;;
9848;SDS011;4963;51.444;6.528;2023-03-13T02:24:52;12.20;;;4.07;;
9848;SDS011;4963;51.444;6.528;2023-03-13T02:27:25;13.40;;;3.83;;
9848;SDS011;4963;51.444;6.528;2023-03-13T02:29:52;19.53;;;4.13;;
9848;SDS011;4963;51.444;6.528;2023-03-13T02:32:19;13.70;;;3.23;;
9848;SDS011;4963;51.444;6.528;2023-03-13T02:34:47;8.57;;;3.70;;
9848;SDS011;4963;51.444;6.528;2023-03-13T02:37:17;14.07;;;3.27;;
9848;SDS011;4963;51.444;6.528;2023-03-13T02:39:46;14.57;;;3.73;;
9848;SDS011;4963;51.444;6.528;2023-03-13T02:42:15;11.13;;;3.23;;
9848;SDS011;4963;51.444;6.528;2023-03-13T02:44:45;12.13;;;3.83;;
9848;SDS011;4963;51.444;6.528;2023-03-13T02:47:16;11.77;;;3.10;;
9848;SDS011;4963;51.444;6.528;2023-03-13T02:49:43;10.93;;;2.80;;
9848;SDS011;4963;51.444;6.528;2023-03-13T02:52:11;11.13;;;3.13;;
9848;SDS011;4963;51.444;6.528;2023-03-13T02:54:39;8.53;;;3.33;;
9848;SDS011;4963;51.444;6.528;2023-03-13T02:57:09;7.47;;;2.60;;
9848;SDS011;4963;51.444;6.528;2023-03-13T02:59:35;6.43;;;3.13;;
9848;SDS011;4963;51.444;6.528;2023-03-13T03:02:03;5.20;;;2.37;;
9848;SDS011;4963;51.444;6.528;2023-03-13T03:04:30;7.93;;;2.60;;
9848;SDS011;4963;51.444;6.528;2023-03-13T03:06:57;10.10;;;3.60;;
9848;SDS011;4963;51.444;6.528;2023-03-13T03:09:24;4.50;;;2.23;;
9848;SDS011;4963;51.444;6.528;2023-03-13T03:11:51;6.00;;;2.47;;
9848;SDS011;4963;51.444;6.528;2023-03-13T03:14:18;5.97;;;2.57;;
9848;SDS011;4963;51.444;6.528;2023-03-13T03:16:45;4.10;;;2.60;;
9848;SDS011;4963;51.444;6.528;2023-03-13T03:19:13;7.20;;;2.53;;
9848;SDS011;4963;51.444;6.528;2023-03-13T03:21:40;5.97;;;2.77;;
9848;SDS011;4963;51.444;6.528;2023-03-13T03:24:07;6.33;;;2.40;;
9848;SDS011;4963;51.444;6.528;2023-03-13T03:26:34;7.13;;;3.20;;
9848;SDS011;4963;51.444;6.528;2023-03-13T03:29:01;5.40;;;2.50;;
9848;SDS011;4963;51.444;6.528;2023-03-13T03:31:28;4.53;;;2.70;;
9848;SDS011;4963;51.444;6.528;2023-03-13T03:33:56;5.83;;;2.90;;
9848;SDS011;4963;51.444;6.528;2023-03-13T03:36:24;4.93;;;2.83;;
9848;SDS011;4963;51.444;6.528;2023-03-13T03:38:51;6.60;;;3.00;;
9848;SDS011;4963;51.444;6.528;2023-03-13T03:41:18;5.23;;;2.90;;
9848;SDS011;4963;51.444;6.528;2023-03-13T03:43:45;7.13;;;3.00;;
9848;SDS011;4963;51.444;6.528;2023-03-13T03:46:12;7.67;;;3.47;;
9848;SDS011;4963;51.444;6.528;2023-03-13T03:48:39;4.53;;;2.87;;
9848;SDS011;4963;51.444;6.528;2023-03-13T03:51:06;5.57;;;3.70;;
9848;SDS011;4963;51.444;6.528;2023-03-13T03:53:34;8.27;;;3.70;;
9848;SDS011;4963;51.444;6.528;2023-03-13T03:56:01;5.07;;;3.37;;
9848;SDS011;4963;51.444;6.528;2023-03-13T03:58:28;6.07;;;3.53;;
9848;SDS011;4963;51.444;6.528;2023-03-13T04:00:55;4.87;;;2.97;;
9848;SDS011;4963;51.444;6.528;2023-03-13T04:03:23;5.10;;;3.60;;
9848;SDS011;4963;51.444;6.528;2023-03-13T04:05:50;6.00;;;3.40;;
9848;SDS011;4963;51.444;6.528;2023-03-13T04:08:17;5.73;;;3.50;;
9848;SDS011;4963;51.444;6.528;2023-03-13T04:10:45;5.27;;;3.97;;
9848;SDS011;4963;51.444;6.528;2023-03-13T04:13:12;4.43;;;3.30;;
9848;SDS011;4963;51.444;6.528;2023-03-13T04:15:39;7.23;;;3.70;;
9848;SDS011;4963;51.444;6.528;2023-03-13T04:18:06;4.33;;;3.37;;
9848;SDS011;4963;51.444;6.528;2023-03-13T04:20:33;7.50;;;3.87;;
9848;SDS011;4963;51.444;6.528;2023-03-13T04:23:00;6.90;;;3.30;;
9848;SDS011;4963;51.444;6.528;2023-03-13T04:25:27;4.80;;;3.60;;
9848;SDS011;4963;51.444;6.528;2023-03-13T04:27:56;4.33;;;3.37;;
9848;SDS011;4963;51.444;6.528;2023-03-13T04:30:22;3.80;;;3.33;;
9848;SDS011;4963;51.444;6.528;2023-03-13T04:32:49;4.53;;;3.07;;
9848;SDS011;4963;51.444;6.528;2023-03-13T04:35:16;3.97;;;3.10;;
9848;SDS011;4963;51.444;6.528;2023-03-13T04:37:43;3.77;;;3.37;;
9848;SDS011;4963;51.444;6.528;2023-03-13T04:40:10;4.73;;;3.60;;
9848;SDS011;4963;51.444;6.528;2023-03-13T04:42:38;4.13;;;3.40;;
9848;SDS011;4963;51.444;6.528;2023-03-13T04:45:07;4.80;;;3.50;;
9848;SDS011;4963;51.444;6.528;2023-03-13T04:47:36;4.53;;;3.43;;
9848;SDS011;4963;51.444;6.528;2023-03-13T04:50:03;5.20;;;3.90;;
9848;SDS011;4963;51.444;6.528;2023-03-13T04:52:30;4.77;;;3.57;;
9848;SDS011;4963;51.444;6.528;2023-03-13T04:54:57;4.83;;;3.57;;
9848;SDS011;4963;51.444;6.528;2023-03-13T04:57:24;5.40;;;4.03;;
9848;SDS011;4963;51.444;6.528;2023-03-13T04:59:50;4.73;;;3.40;;
9848;SDS011;4963;51.444;6.528;2023-03-13T05:02:19;4.13;;;3.37;;
9848;SDS011;4963;51.444;6.528;2023-03-13T05:04:45;7.10;;;3.73;;
9848;SDS011;4963;51.444;6.528;2023-03-13T05:07:12;5.40;;;3.57;;
9848;SDS011;4963;51.444;6.528;2023-03-13T05:09:39;5.80;;;4.00;;
9848;SDS011;4963;51.444;6.528;2023-03-13T05:12:06;5.67;;;3.90;;
9848;SDS011;4963;51.444;6.528;2023-03-13T05:14:33;4.13;;;3.50;;
9848;SDS011;4963;51.444;6.528;2023-03-13T05:16:59;4.60;;;3.63;;
9848;SDS011;4963;51.444;6.528;2023-03-13T05:19:27;4.93;;;3.60;;
9848;SDS011;4963;51.444;6.528;2023-03-13T05:21:54;4.97;;;3.03;;
9848;SDS011;4963;51.444;6.528;2023-03-13T05:24:21;8.23;;;3.70;;
9848;SDS011;4963;51.444;6.528;2023-03-13T05:26:48;3.83;;;3.40;;
9848;SDS011;4963;51.444;6.528;2023-03-13T05:29:14;4.43;;;3.33;;
9848;SDS011;4963;51.444;6.528;2023-03-13T05:31:41;3.50;;;2.90;;
9848;SDS011;4963;51.444;6.528;2023-03-13T05:34:08;4.43;;;3.10;;
9848;SDS011;4963;51.444;6.528;2023-03-13T05:36:36;4.13;;;3.10;;
9848;SDS011;4963;51.444;6.528;2023-03-13T05:39:03;4.40;;;3.20;;
9848;SDS011;4963;51.444;6.528;2023-03-13T05:41:29;6.87;;;3.43;;
9848;SDS011;4963;51.444;6.528;2023-03-13T05:43:56;3.67;;;3.10;;
9848;SDS011;4963;51.444;6.528;2023-03-13T05:46:23;5.40;;;2.77;;
9848;SDS011;4963;51.444;6.528;2023-03-13T05:48:50;5.67;;;2.73;;
9848;SDS011;4963;51.444;6.528;2023-03-13T05:51:17;4.17;;;3.50;;
9848;SDS011;4963;51.444;6.528;2023-03-13T05:53:45;5.23;;;2.90;;
9848;SDS011;4963;51.444;6.528;2023-03-13T05:56:11;5.27;;;3.27;;
9848;SDS011;4963;51.444;6.528;2023-03-13T05:58:38;4.57;;;3.23;;
9848;SDS011;4963;51.444;6.528;2023-03-13T06:01:06;3.10;;;2.47;;
9848;SDS011;4963;51.444;6.528;2023-03-13T06:03:33;4.97;;;3.23;;
9848;SDS011;4963;51.444;6.528;2023-03-13T06:06:00;6.03;;;2.93;;
9848;SDS011;4963;51.444;6.528;2023-03-13T06:08:27;3.87;;;3.07;;
9848;SDS011;4963;51.444;6.528;2023-03-13T06:10:58;5.70;;;3.13;;
9848;SDS011;4963;51.444;6.528;2023-03-13T06:13:26;5.20;;;2.90;;
9848;SDS011;4963;51.444;6.528;2023-03-13T06:15:53;4.47;;;2.90;;
9848;SDS011;4963;51.444;6.528;2023-03-13T06:18:21;3.37;;;2.50;;
9848;SDS011;4963;51.444;6.528;2023-03-13T06:20:49;4.70;;;3.33;;
9848;SDS011;4963;51.444;6.528;2023-03-13T06:23:21;5.50;;;2.93;;
9848;SDS011;4963;51.444;6.528;2023-03-13T06:25:48;5.43;;;2.93;;
9848;SDS011;4963;51.444;6.528;2023-03-13T06:28:16;4.90;;;3.17;;
9848;SDS011;4963;51.444;6.528;2023-03-13T06:30:43;3.90;;;2.67;;
9848;SDS011;4963;51.444;6.528;2023-03-13T06:33:09;3.67;;;3.13;;
9848;SDS011;4963;51.444;6.528;2023-03-13T06:35:38;6.33;;;2.83;;
9848;SDS011;4963;51.444;6.528;2023-03-13T06:38:05;4.17;;;2.73;;
9848;SDS011;4963;51.444;6.528;2023-03-13T06:40:32;4.00;;;2.80;;
9848;SDS011;4963;51.444;6.528;2023-03-13T06:42:59;5.90;;;2.93;;
9848;SDS011;4963;51.444;6.528;2023-03-13T06:45:27;5.73;;;2.90;;
9848;SDS011;4963;51.444;6.528;2023-03-13T06:47:54;4.83;;;2.50;;
9848;SDS011;4963;51.444;6.528;2023-03-13T06:50:21;5.17;;;3.00;;
9848;SDS011;4963;51.444;6.528;2023-03-13T06:52:48;4.83;;;2.50;;
9848;SDS011;4963;51.444;6.528;2023-03-13T06:55:14;5.10;;;2.83;;
9848;SDS011;4963;51.444;6.528;2023-03-13T06:57:41;4.07;;;2.70;;
9848;SDS011;4963;51.444;6.528;2023-03-13T07:00:08;6.47;;;2.80;;
9848;SDS011;4963;51.444;6.528;2023-03-13T07:02:38;6.00;;;2.57;;
9848;SDS011;4963;51.444;6.528;2023-03-13T07:05:05;4.73;;;2.47;;
9848;SDS011;4963;51.444;6.528;2023-03-13T07:07:33;6.57;;;4.20;;
9848;SDS011;4963;51.444;6.528;2023-03-13T07:10:00;5.53;;;3.10;;
9848;SDS011;4963;51.444;6.528;2023-03-13T07:12:27;14.50;;;9.63;;
9848;SDS011;4963;51.444;6.528;2023-03-13T07:14:53;17.73;;;10.93;;
9848;SDS011;4963;51.444;6.528;2023-03-13T07:17:20;8.77;;;3.40;;
9848;SDS011;4963;51.444;6.528;2023-03-13T07:19:48;7.40;;;4.33;;
9848;SDS011;4963;51.444;6.528;2023-03-13T07:22:15;6.63;;;3.60;;
9848;SDS011;4963;51.444;6.528;2023-03-13T07:24:42;9.03;;;5.63;;
9848;SDS011;4963;51.444;6.528;2023-03-13T07:27:09;6.00;;;3.17;;
9848;SDS011;4963;51.444;6.528;2023-03-13T07:29:35;7.97;;;4.30;;
9848;SDS011;4963;51.444;6.528;2023-03-13T07:32:02;7.87;;;3.47;;
9848;SDS011;4963;51.444;6.528;2023-03-13T07:34:29;8.77;;;4.47;;
9848;SDS011;4963;51.444;6.528;2023-03-13T07:36:57;6.87;;;3.27;;
9848;SDS011;4963;51.444;6.528;2023-03-13T07:39:24;4.83;;;3.40;;
9848;SDS011;4963;51.444;6.528;2023-03-13T07:41:51;8.27;;;3.57;;
9848;SDS011;4963;51.444;6.528;2023-03-13T07:44:18;8.60;;;3.90;;
9848;SDS011;4963;51.444;6.528;2023-03-13T07:46:44;25.67;;;15.53;;
9848;SDS011;4963;51.444;6.528;2023-03-13T07:49:12;12.73;;;8.53;;
9848;SDS011;4963;51.444;6.528;2023-03-13T07:51:39;7.77;;;3.40;;
9848;SDS011;4963;51.444;6.528;2023-03-13T07:54:07;4.63;;;3.10;;
9848;SDS011;4963;51.444;6.528;2023-03-13T07:56:34;13.93;;;7.63;;
9848;SDS011;4963;51.444;6.528;2023-03-13T07:59:00;9.30;;;3.63;;
9848;SDS011;4963;51.444;6.528;2023-03-13T08:01:27;12.37;;;4.00;;
9848;SDS011;4963;51.444;6.528;2023-03-13T08:03:54;9.10;;;5.03;;
9848;SDS011;4963;51.444;6.528;2023-03-13T08:06:21;11.27;;;5.83;;
9848;SDS011;4963;51.444;6.528;2023-03-13T08:08:50;6.00;;;3.57;;
9848;SDS011;4963;51.444;6.528;2023-03-13T08:11:19;5.87;;;3.00;;
9848;SDS011;4963;51.444;6.528;2023-03-13T08:13:48;9.23;;;3.90;;
9848;SDS011;4963;51.444;6.528;2023-03-13T08:16:16;6.93;;;2.97;;
9848;SDS011;4963;51.444;6.528;2023-03-13T08:18:45;8.77;;;3.73;;
9848;SDS011;4963;51.444;6.528;2023-03-13T08:21:13;12.40;;;8.23;;
9848;SDS011;4963;51.444;6.528;2023-03-13T08:23:41;8.13;;;4.93;;
9848;SDS011;4963;51.444;6.528;2023-03-13T08:26:09;9.73;;;4.80;;
9848;SDS011;4963;51.444;6.528;2023-03-13T08:28:38;10.87;;;7.57;;
9848;SDS011;4963;51.444;6.528;2023-03-13T08:31:06;11.20;;;6.67;;
9848;SDS011;4963;51.444;6.528;2023-03-13T08:33:34;11.17;;;5.87;;
9848;SDS011;4963;51.444;6.528;2023-03-13T08:36:09;13.77;;;7.43;;
9848;SDS011;4963;51.444;6.528;2023-03-13T08:38:37;11.43;;;7.23;;
9848;SDS011;4963;51.444;6.528;2023-03-13T08:41:06;15.03;;;6.73;;
9848;SDS011;4963;51.444;6.528;2023-03-13T08:43:33;11.63;;;7.20;;
9848;SDS011;4963;51.444;6.528;2023-03-13T08:46:01;12.50;;;5.87;;
9848;SDS011;4963;51.444;6.528;2023-03-13T08:48:28;10.27;;;6.47;;
9848;SDS011;4963;51.444;6.528;2023-03-13T08:51:01;14.17;;;6.43;;
9848;SDS011;4963;51.444;6.528;2023-03-13T08:53:29;12.90;;;7.23;;
9848;SDS011;4963;51.444;6.528;2023-03-13T08:55:57;10.00;;;5.60;;
9848;SDS011;4963;51.444;6.528;2023-03-13T08:58:24;7.83;;;4.63;;
9848;SDS011;4963;51.444;6.528;2023-03-13T09:00:51;5.63;;;3.83;;
9848;SDS011;4963;51.444;6.528;2023-03-13T09:03:19;9.60;;;4.20;;
9848;SDS011;4963;51.444;6.528;2023-03-13T09:05:46;8.87;;;5.03;;
9848;SDS011;4963;51.444;6.528;2023-03-13T09:08:13;15.93;;;9.87;;
9848;SDS011;4963;51.444;6.528;2023-03-13T09:10:40;9.77;;;5.20;;
9848;SDS011;4963;51.444;6.528;2023-03-13T09:13:06;5.60;;;3.60;;
9848;SDS011;4963;51.444;6.528;2023-03-13T09:15:33;6.67;;;4.10;;
9848;SDS011;4963;51.444;6.528;2023-03-13T09:18:00;9.73;;;5.43;;
9848;SDS011;4963;51.444;6.528;2023-03-13T09:20:28;7.07;;;4.50;;
9848;SDS011;4963;51.444;6.528;2023-03-13T09:22:55;8.77;;;3.67;;
9848;SDS011;4963;51.444;6.528;2023-03-13T09:25:22;7.07;;;3.93;;
9848;SDS011;4963;51.444;6.528;2023-03-13T09:27:49;10.47;;;4.63;;
9848;SDS011;4963;51.444;6.528;2023-03-13T09:30:15;7.20;;;3.20;;
9848;SDS011;4963;51.444;6.528;2023-03-13T09:32:43;7.87;;;3.90;;
9848;SDS011;4963;51.444;6.528;2023-03-13T09:35:09;7.87;;;4.77;;
9848;SDS011;4963;51.444;6.528;2023-03-13T09:37:38;7.10;;;3.40;;
9848;SDS011;4963;51.444;6.528;2023-03-13T09:40:05;9.93;;;4.23;;
9848;SDS011;4963;51.444;6.528;2023-03-13T09:42:38;8.03;;;3.63;;
9848;SDS011;4963;51.444;6.528;2023-03-13T09:45:12;6.20;;;3.47;;
9848;SDS011;4963;51.444;6.528;2023-03-13T09:47:43;6.53;;;5.20;;
9848;SDS011;4963;51.444;6.528;2023-03-13T09:50:12;10.00;;;6.10;;
9848;SDS011;4963;51.444;6.528;2023-03-13T09:52:45;7.27;;;4.20;;
9848;SDS011;4963;51.444;6.528;2023-03-13T09:55:16;7.27;;;3.23;;
9848;SDS011;4963;51.444;6.528;2023-03-13T09:57:48;5.30;;;3.43;;
9848;SDS011;4963;51.444;6.528;2023-03-13T10:00:20;7.20;;;4.03;;
9848;SDS011;4963;51.444;6.528;2023-03-13T10:02:53;7.03;;;2.90;;
9848;SDS011;4963;51.444;6.528;2023-03-13T10:05:22;9.57;;;3.93;;
9848;SDS011;4963;51.444;6.528;2023-03-13T10:07:52;5.90;;;3.13;;
9848;SDS011;4963;51.444;6.528;2023-03-13T10:10:24;4.50;;;2.93;;
9848;SDS011;4963;51.444;6.528;2023-03-13T10:13:00;5.53;;;3.00;;
9848;SDS011;4963;51.444;6.528;2023-03-13T10:15:36;5.23;;;2.67;;
9848;SDS011;4963;51.444;6.528;2023-03-13T10:18:15;3.23;;;2.33;;
9848;SDS011;4963;51.444;6.528;2023-03-13T10:20:45;4.00;;;3.03;;
9848;SDS011;4963;51.444;6.528;2023-03-13T10:23:15;2.90;;;2.03;;
9848;SDS011;4963;51.444;6.528;2023-03-13T10:25:46;6.23;;;3.60;;
9848;SDS011;4963;51.444;6.528;2023-03-13T10:28:13;4.77;;;2.40;;
9848;SDS011;4963;51.444;6.528;2023-03-13T10:30:45;4.23;;;2.43;;
9848;SDS011;4963;51.444;6.528;2023-03-13T10:33:20;6.20;;;2.60;;
9848;SDS011;4963;51.444;6.528;2023-03-13T10:35:58;7.57;;;2.47;;
9848;SDS011;4963;51.444;6.528;2023-03-13T10:38:33;6.33;;;2.90;;
9848;SDS011;4963;51.444;6.528;2023-03-13T10:41:17;4.60;;;2.23;;
9848;SDS011;4963;51.444;6.528;2023-03-13T10:43:57;5.13;;;2.97;;
9848;SDS011;4963;51.444;6.528;2023-03-13T10:46:26;5.23;;;2.33;;
9848;SDS011;4963;51.444;6.528;2023-03-13T10:48:54;6.57;;;2.13;;
9848;SDS011;4963;51.444;6.528;2023-03-13T10:51:22;2.97;;;2.00;;
9848;SDS011;4963;51.444;6.528;2023-03-13T10:53:56;2.80;;;1.80;;
9848;SDS011;4963;51.444;6.528;2023-03-13T10:56:24;3.97;;;2.00;;
9848;SDS011;4963;51.444;6.528;2023-03-13T10:58:54;4.63;;;2.17;;
9848;SDS011;4963;51.444;6.528;2023-03-13T11:01:22;5.13;;;1.83;;
9848;SDS011;4963;51.444;6.528;2023-03-13T11:03:50;3.27;;;1.90;;
9848;SDS011;4963;51.444;6.528;2023-03-13T11:06:26;3.50;;;1.73;;
9848;SDS011;4963;51.444;6.528;2023-03-13T11:08:59;2.57;;;1.83;;
9848;SDS011;4963;51.444;6.528;2023-03-13T11:11:30;3.40;;;1.80;;
9848;SDS011;4963;51.444;6.528;2023-03-13T11:14:11;4.30;;;2.00;;
9848;SDS011;4963;51.444;6.528;2023-03-13T11:16:41;4.73;;;2.00;;
9848;SDS011;4963;51.444;6.528;2023-03-13T11:19:20;5.10;;;1.90;;
9848;SDS011;4963;51.444;6.528;2023-03-13T11:22:04;2.97;;;1.97;;
9848;SDS011;4963;51.444;6.528;2023-03-13T11:24:43;3.30;;;1.77;;
9848;SDS011;4963;51.444;6.528;2023-03-13T11:27:18;2.67;;;1.70;;
9848;SDS011;4963;51.444;6.528;2023-03-13T11:29:54;3.67;;;2.43;;
9848;SDS011;4963;51.444;6.528;2023-03-13T11:32:30;4.43;;;1.93;;
9848;SDS011;4963;51.444;6.528;2023-03-13T11:35:04;2.67;;;1.57;;
9848;SDS011;4963;51.444;6.528;2023-03-13T11:37:40;4.00;;;1.50;;
9848;SDS011;4963;51.444;6.528;2023-03-13T11:40:13;2.13;;;1.50;;
9848;SDS011;4963;51.444;6.528;2023-03-13T11:42:56;2.43;;;2.10;;
9848;SDS011;4963;51.444;6.528;2023-03-13T11:45:46;2.67;;;2.07;;
9848;SDS011;4963;51.444;6.528;2023-03-13T11:48:30;4.10;;;2.60;;
9848;SDS011;4963;51.444;6.528;2023-03-13T11:51:10;3.90;;;1.90;;
9848;SDS011;4963;51.444;6.528;2023-03-13T11:53:49;6.60;;;3.07;;
9848;SDS011;4963;51.444;6.528;2023-03-13T11:56:33;2.63;;;1.30;;
9848;SDS011;4963;51.444;6.528;2023-03-13T11:59:15;1.60;;;1.50;;
9848;SDS011;4963;51.444;6.528;2023-03-13T12:01:54;3.67;;;2.60;;
9848;SDS011;4963;51.444;6.528;2023-03-13T12:04:26;3.67;;;1.73;;
9848;SDS011;4963;51.444;6.528;2023-03-13T12:06:58;17.53;;;2.30;;
9848;SDS011;4963;51.444;6.528;2023-03-13T12:09:28;3.43;;;1.83;;
9848;SDS011;4963;51.444;6.528;2023-03-13T12:11:59;2.93;;;2.30;;
9848;SDS011;4963;51.444;6.528;2023-03-13T12:14:30;3.63;;;1.90;;
9848;SDS011;4963;51.444;6.528;2023-03-13T12:17:02;2.60;;;1.57;;
9848;SDS011;4963;51.444;6.528;2023-03-13T12:19:31;1.77;;;1.03;;
9848;SDS011;4963;51.444;6.528;2023-03-13T12:22:06;2.17;;;1.43;;
9848;SDS011;4963;51.444;6.528;2023-03-13T12:24:41;2.57;;;1.50;;
9848;SDS011;4963;51.444;6.528;2023-03-13T12:27:17;1.57;;;1.13;;
9848;SDS011;4963;51.444;6.528;2023-03-13T12:29:49;3.33;;;1.77;;
9848;SDS011;4963;51.444;6.528;2023-03-13T12:32:22;3.43;;;1.40;;
9848;SDS011;4963;51.444;6.528;2023-03-13T12:34:58;4.23;;;1.57;;
9848;SDS011;4963;51.444;6.528;2023-03-13T12:37:33;1.93;;;1.40;;
9848;SDS011;4963;51.444;6.528;2023-03-13T12:40:10;2.15;;;1.33;;
9848;SDS011;4963;51.444;6.528;2023-03-13T12:42:41;4.60;;;1.40;;
9848;SDS011;4963;51.444;6.528;2023-03-13T12:45:16;2.83;;;1.67;;
9848;SDS011;4963;51.444;6.528;2023-03-13T12:50:44;3.77;;;1.73;;
9848;SDS011;4963;51.444;6.528;2023-03-13T12:53:36;2.87;;;1.43;;
9848;SDS011;4963;51.444;6.528;2023-03-13T12:56:19;4.40;;;3.00;;
9848;SDS011;4963;51.444;6.528;2023-03-13T12:58:58;3.43;;;2.57;;
9848;SDS011;4963;51.444;6.528;2023-03-13T13:01:31;3.97;;;1.40;;
9848;SDS011;4963;51.444;6.528;2023-03-13T13:04:03;3.40;;;1.83;;
9848;SDS011;4963;51.444;6.528;2023-03-13T13:09:20;3.57;;;2.57;;
9848;SDS011;4963;51.444;6.528;2023-03-13T13:11:49;3.57;;;1.37;;
9848;SDS011;4963;51.444;6.528;2023-03-13T13:20:32;9.53;;;1.23;;
9848;SDS011;4963;51.444;6.528;2023-03-13T13:23:26;1.30;;;1.13;;
9848;SDS011;4963;51.444;6.528;2023-03-13T13:32:37;3.00;;;1.23;;
9848;SDS011;4963;51.444;6.528;2023-03-13T13:40:57;2.03;;;1.37;;
9848;SDS011;4963;51.444;6.528;2023-03-13T13:43:25;1.58;;;1.00;;
9848;SDS011;4963;51.444;6.528;2023-03-13T13:45:58;1.13;;;0.90;;
9848;SDS011;4963;51.444;6.528;2023-03-13T13:48:27;1.23;;;0.93;;
9848;SDS011;4963;51.444;6.528;2023-03-13T13:53:54;2.67;;;1.23;;
9848;SDS011;4963;51.444;6.528;2023-03-13T13:56:31;1.90;;;1.23;;
9848;SDS011;4963;51.444;6.528;2023-03-13T13:59:02;1.43;;;1.13;;
9848;SDS011;4963;51.444;6.528;2023-03-13T14:01:41;1.27;;;1.10;;
9848;SDS011;4963;51.444;6.528;2023-03-13T14:04:10;2.77;;;1.50;;
9848;SDS011;4963;51.444;6.528;2023-03-13T14:06:43;1.23;;;1.00;;
9848;SDS011;4963;51.444;6.528;2023-03-13T14:09:15;3.13;;;1.37;;
9848;SDS011;4963;51.444;6.528;2023-03-13T14:11:51;3.20;;;1.33;;
9848;SDS011;4963;51.444;6.528;2023-03-13T14:14:19;3.17;;;1.50;;
9848;SDS011;4963;51.444;6.528;2023-03-13T14:16:47;4.83;;;2.20;;
9848;SDS011;4963;51.444;6.528;2023-03-13T14:19:23;3.47;;;1.50;;
9848;SDS011;4963;51.444;6.528;2023-03-13T14:21:57;1.40;;;1.20;;
9848;SDS011;4963;51.444;6.528;2023-03-13T14:24:25;1.40;;;1.20;;
9848;SDS011;4963;51.444;6.528;2023-03-13T14:26:52;2.17;;;1.40;;
9848;SDS011;4963;51.444;6.528;2023-03-13T14:29:19;1.50;;;1.20;;
9848;SDS011;4963;51.444;6.528;2023-03-13T14:31:51;2.03;;;1.30;;
9848;SDS011;4963;51.444;6.528;2023-03-13T14:34:19;1.47;;;1.20;;
9848;SDS011;4963;51.444;6.528;2023-03-13T14:36:48;2.90;;;1.80;;
9848;SDS011;4963;51.444;6.528;2023-03-13T14:39:17;3.67;;;1.83;;
9848;SDS011;4963;51.444;6.528;2023-03-13T14:41:46;8.40;;;5.30;;
9848;SDS011;4963;51.444;6.528;2023-03-13T14:44:16;3.03;;;1.40;;
9848;SDS011;4963;51.444;6.528;2023-03-13T14:46:48;1.77;;;1.37;;
9848;SDS011;4963;51.444;6.528;2023-03-13T14:49:20;2.03;;;1.33;;
9848;SDS011;4963;51.444;6.528;2023-03-13T14:51:55;2.10;;;1.50;;
9848;SDS011;4963;51.444;6.528;2023-03-13T14:54:27;4.97;;;1.43;;
9848;SDS011;4963;51.444;6.528;2023-03-13T14:57:11;4.37;;;1.73;;
9848;SDS011;4963;51.444;6.528;2023-03-13T14:59:40;3.37;;;1.40;;
9848;SDS011;4963;51.444;6.528;2023-03-13T15:02:15;2.67;;;1.50;;
9848;SDS011;4963;51.444;6.528;2023-03-13T15:04:49;4.30;;;1.33;;
9848;SDS011;4963;51.444;6.528;2023-03-13T15:07:21;3.93;;;1.87;;
9848;SDS011;4963;51.444;6.528;2023-03-13T15:09:51;2.53;;;1.50;;
9848;SDS011;4963;51.444;6.528;2023-03-13T15:12:19;2.13;;;1.60;;
9848;SDS011;4963;51.444;6.528;2023-03-13T15:14:48;2.33;;;1.70;;
9848;SDS011;4963;51.444;6.528;2023-03-13T15:17:17;5.23;;;2.00;;
9848;SDS011;4963;51.444;6.528;2023-03-13T15:19:49;3.17;;;2.00;;
9848;SDS011;4963;51.444;6.528;2023-03-13T15:22:18;3.70;;;2.20;;
9848;SDS011;4963;51.444;6.528;2023-03-13T15:24:52;3.77;;;2.30;;
9848;SDS011;4963;51.444;6.528;2023-03-13T15:27:19;4.03;;;1.93;;
9848;SDS011;4963;51.444;6.528;2023-03-13T15:29:48;5.00;;;2.27;;
9848;SDS011;4963;51.444;6.528;2023-03-13T15:32:16;3.58;;;1.70;;
9848;SDS011;4963;51.444;6.528;2023-03-13T15:34:49;4.40;;;1.80;;
9848;SDS011;4963;51.444;6.528;2023-03-13T15:37:16;2.63;;;1.70;;
9848;SDS011;4963;51.444;6.528;2023-03-13T15:39:43;5.47;;;2.40;;
9848;SDS011;4963;51.444;6.528;2023-03-13T15:42:11;2.77;;;1.30;;
9848;SDS011;4963;51.444;6.528;2023-03-13T15:44:38;4.07;;;2.27;;
9848;SDS011;4963;51.444;6.528;2023-03-13T15:47:05;2.70;;;1.77;;
9848;SDS011;4963;51.444;6.528;2023-03-13T15:49:34;6.00;;;2.80;;
9848;SDS011;4963;51.444;6.528;2023-03-13T15:52:02;3.67;;;1.90;;
9848;SDS011;4963;51.444;6.528;2023-03-13T15:54:29;7.17;;;1.60;;